Burleson, Texas
Current Conditions -  °F | °C
As of 3:15 AM on Monday 24 Nov 2014 (Local Time) from KFWS Reporting Station
Clear Clear  
Wind Chill: 40°   Ceiling: Unl
Heat Index: 44°   Visibility: 10mi
Dew Point: 35°   Wind: 8mph
Humidity: 71%   Direction: 280°W
Pressure: 29.93"   Gusts: NA
Location:  32.56°N, 97.32°W
Report Text: KFWS 240915Z AUTO 28007KT 10SM CLR 07/02 A2993 RMK AO2 T00680019
Loading
Personal Weather Stations






























Interactive Weather Map New forecast layout! Learn more

10-Day Weather Forecast

Advertisements
Track Severe Weather on mobile